Kerry Moran — WDD4068 — position and weather

sailwx.info

Track history (hours):
 
Tides and Currents Weather Stations Pressure Air Temp Water Temp Dewpoint Dewpoint Depression Visibility Wind Speed Wind Dir Waves Ship Positions

Kerry Moran

Owner: Moran Towing Corporation, New Canaan, CT. More information available from US FCC via Universal Licensing System and Coast Guard Vessel Documentation Center.

Last reported at 2017-Nov-18 17:21 UTC. Time now 2017-Nov-20 12:03 UTC.
Position N 36°57' W 076°20'.

; draft 5.6 m.

Type: Tug. MMSI: 367139770.

Date/timePositionNaut miles runAvg speedWind from/ knotsBaromVisibWave heightAir tempDewpointWater temp
2017-Nov-18 17:21N 36°57' W 076°20'3 6.8
2017-Nov-18 16:51N 36°53' W 076°20'0 0.0
2017-Nov-18 16:29N 36°53' W 076°20'  
2017-Nov-10 21:27N 36°57' W 076°20'0 0.0
2017-Nov-10 21:00N 36°57' W 076°20'0 0.0
2017-Nov-10 20:30N 36°57' W 076°20'0 0.0
2017-Nov-10 20:00N 36°57' W 076°20'0 0.0
2017-Nov-10 19:30N 36°57' W 076°20'0 0.0
2017-Nov-10 19:00N 36°57' W 076°20'0 0.0
2017-Nov-10 18:30N 36°57' W 076°20'0 0.0
2017-Nov-10 18:00N 36°57' W 076°20'0 0.0
2017-Nov-10 17:30N 36°57' W 076°20'0 0.0
2017-Nov-10 17:00N 36°57' W 076°20'0 0.0
2017-Nov-10 16:30N 36°57' W 076°20'0 0.0
2017-Nov-10 16:00N 36°57' W 076°20'0 0.0
2017-Nov-10 15:30N 36°57' W 076°20'0 0.0
2017-Nov-10 15:00N 36°57' W 076°20'0 0.0
2017-Nov-10 14:30N 36°57' W 076°20'0 0.0
2017-Nov-10 14:00N 36°57' W 076°20'0 0.0
2017-Nov-10 13:30N 36°57' W 076°20'0 0.0
2017-Nov-10 13:00N 36°57' W 076°20'0 0.0
2017-Nov-10 12:30N 36°57' W 076°20'0 0.0
2017-Nov-10 12:00N 36°57' W 076°20'0 0.0
2017-Nov-10 11:30N 36°57' W 076°20'0 0.0
2017-Nov-10 11:00N 36°57' W 076°20'0 0.0
2017-Nov-10 10:30N 36°57' W 076°20'0 0.0
2017-Nov-10 10:00N 36°57' W 076°20'0 0.0
2017-Nov-10 09:30N 36°57' W 076°20'0 0.0
2017-Nov-10 09:00N 36°57' W 076°20'0 0.0
2017-Nov-10 08:30N 36°57' W 076°20'0 0.0
2017-Nov-10 08:00N 36°57' W 076°20'0 0.0
2017-Nov-10 07:30N 36°57' W 076°20'0 0.0
2017-Nov-10 07:00N 36°57' W 076°20'0 0.0
2017-Nov-10 06:30N 36°57' W 076°20'0 0.0
2017-Nov-10 06:00N 36°57' W 076°20'0 0.0
2017-Nov-10 05:30N 36°57' W 076°20'0 0.0
2017-Nov-10 05:00N 36°57' W 076°20'0 0.0
2017-Nov-10 04:29N 36°57' W 076°20'0 0.0
2017-Nov-10 04:00N 36°57' W 076°20'0 0.0
2017-Nov-10 03:30N 36°57' W 076°20'0 0.0
2017-Nov-10 03:00N 36°57' W 076°20'0 0.0
2017-Nov-10 02:30N 36°57' W 076°20'0 0.0
2017-Nov-10 02:00N 36°57' W 076°20'0 0.0
2017-Nov-10 01:30N 36°57' W 076°20'0 0.0
2017-Nov-10 01:00N 36°57' W 076°20'0 0.0
2017-Nov-10 00:30N 36°57' W 076°20'0 0.0
2017-Nov-10 00:00N 36°57' W 076°20'0 0.0
2017-Nov-09 23:30N 36°57' W 076°20'1 0.5
2017-Nov-09 22:06N 36°57' W 076°20'0 1.7
2017-Nov-09 21:59N 36°56' W 076°20'3 5.7
2017-Nov-09 21:26N 36°53' W 076°20'4 1.4
2017-Nov-09 18:47N 36°57' W 076°20'0 0.0
2017-Nov-09 15:42N 36°57' W 076°20'0 0.0
2017-Nov-08 21:54N 36°57' W 076°20'0 0.0
2017-Nov-08 21:30N 36°57' W 076°20'0 0.0
2017-Nov-08 21:00N 36°57' W 076°20'0 0.0
2017-Nov-08 20:30N 36°57' W 076°20'0 0.5
2017-Nov-08 20:00N 36°57' W 076°20'1 1.0
2017-Nov-08 19:20N 36°56' W 076°20'2 6.1
2017-Nov-08 18:58N 36°54' W 076°20'3 6.0
2017-Nov-08 18:30N 36°52' W 076°19'2 3.2
2017-Nov-08 18:00N 36°51' W 076°18'  
Track history (hours):
 
Tides and Currents Weather Stations Pressure Air Temp Water Temp Dewpoint Dewpoint Depression Visibility Wind Speed Wind Dir Waves Ship Positions

Kerry Moran

Owner: Moran Towing Corporation, New Canaan, CT. More information available from US FCC via Universal Licensing System and Coast Guard Vessel Documentation Center.

Last reported at 2017-Nov-18 17:21 UTC. Time now 2017-Nov-20 12:03 UTC.
Position N 36°57' W 076°20'.

; draft 5.6 m.

Type: Tug. MMSI: 367139770.

Date/timePositionNaut miles runAvg speedWind from/ knotsBaromVisibWave heightAir tempDewpointWater temp
2017-Nov-18 17:21N 36°57' W 076°20'3 6.8
2017-Nov-18 16:51N 36°53' W 076°20'0 0.0
2017-Nov-18 16:29N 36°53' W 076°20'  
2017-Nov-10 21:27N 36°57' W 076°20'0 0.0
2017-Nov-10 21:00N 36°57' W 076°20'0 0.0
2017-Nov-10 20:30N 36°57' W 076°20'0 0.0
2017-Nov-10 20:00N 36°57' W 076°20'0 0.0
2017-Nov-10 19:30N 36°57' W 076°20'0 0.0
2017-Nov-10 19:00N 36°57' W 076°20'0 0.0
2017-Nov-10 18:30N 36°57' W 076°20'0 0.0
2017-Nov-10 18:00N 36°57' W 076°20'0 0.0
2017-Nov-10 17:30N 36°57' W 076°20'0 0.0
2017-Nov-10 17:00N 36°57' W 076°20'0 0.0
2017-Nov-10 16:30N 36°57' W 076°20'0 0.0
2017-Nov-10 16:00N 36°57' W 076°20'0 0.0
2017-Nov-10 15:30N 36°57' W 076°20'0 0.0
2017-Nov-10 15:00N 36°57' W 076°20'0 0.0
2017-Nov-10 14:30N 36°57' W 076°20'0 0.0
2017-Nov-10 14:00N 36°57' W 076°20'0 0.0
2017-Nov-10 13:30N 36°57' W 076°20'0 0.0
2017-Nov-10 13:00N 36°57' W 076°20'0 0.0
2017-Nov-10 12:30N 36°57' W 076°20'0 0.0
2017-Nov-10 12:00N 36°57' W 076°20'0 0.0
2017-Nov-10 11:30N 36°57' W 076°20'0 0.0
2017-Nov-10 11:00N 36°57' W 076°20'0 0.0
2017-Nov-10 10:30N 36°57' W 076°20'0 0.0
2017-Nov-10 10:00N 36°57' W 076°20'0 0.0
2017-Nov-10 09:30N 36°57' W 076°20'0 0.0
2017-Nov-10 09:00N 36°57' W 076°20'0 0.0
2017-Nov-10 08:30N 36°57' W 076°20'0 0.0
2017-Nov-10 08:00N 36°57' W 076°20'0 0.0
2017-Nov-10 07:30N 36°57' W 076°20'0 0.0
2017-Nov-10 07:00N 36°57' W 076°20'0 0.0
2017-Nov-10 06:30N 36°57' W 076°20'0 0.0
2017-Nov-10 06:00N 36°57' W 076°20'0 0.0
2017-Nov-10 05:30N 36°57' W 076°20'0 0.0
2017-Nov-10 05:00N 36°57' W 076°20'0 0.0
2017-Nov-10 04:29N 36°57' W 076°20'0 0.0
2017-Nov-10 04:00N 36°57' W 076°20'0 0.0
2017-Nov-10 03:30N 36°57' W 076°20'0 0.0
2017-Nov-10 03:00N 36°57' W 076°20'0 0.0
2017-Nov-10 02:30N 36°57' W 076°20'0 0.0
2017-Nov-10 02:00N 36°57' W 076°20'0 0.0
2017-Nov-10 01:30N 36°57' W 076°20'0 0.0
2017-Nov-10 01:00N 36°57' W 076°20'0 0.0
2017-Nov-10 00:30N 36°57' W 076°20'0 0.0
2017-Nov-10 00:00N 36°57' W 076°20'0 0.0
2017-Nov-09 23:30N 36°57' W 076°20'1 0.5
2017-Nov-09 22:06N 36°57' W 076°20'0 1.7
2017-Nov-09 21:59N 36°56' W 076°20'3 5.7
2017-Nov-09 21:26N 36°53' W 076°20'4 1.4
2017-Nov-09 18:47N 36°57' W 076°20'0 0.0
2017-Nov-09 15:42N 36°57' W 076°20'0 0.0
2017-Nov-08 21:54N 36°57' W 076°20'0 0.0
2017-Nov-08 21:30N 36°57' W 076°20'0 0.0
2017-Nov-08 21:00N 36°57' W 076°20'0 0.0
2017-Nov-08 20:30N 36°57' W 076°20'0 0.5
2017-Nov-08 20:00N 36°57' W 076°20'1 1.0
2017-Nov-08 19:20N 36°56' W 076°20'2 6.1
2017-Nov-08 18:58N 36°54' W 076°20'3 6.0
2017-Nov-08 18:30N 36°52' W 076°19'2 3.2
2017-Nov-08 18:00N 36°51' W 076°18'  

Dump ship's entire track history